Latest Weather Observations for Cape Willoughby

IDS60801

Issued at 8:11 am CDT Wednesday 23 October 2019 (issued every 10 minutes, with the page automatically refreshed every 10 minutes)

About weather observations | Map of weather stations | Latest weather observations for SA | Other Formats
Station Details ID: 022803 Name: CAPE WILLOUGHBY Lat: -35.84 Lon: 138.13 Height: 55.0 m
Data from the previous 72 hours. | See also: Recent months at Cape Willoughby
Date/Time
CDT
Temp
°C
App
Temp
°C
Dew
Point
°C
Rel
Hum
%
Delta-T
°C
Wind Press
QNH
hPa
Press
MSL
hPa
Rain since
9am
mm
Dir  Spd
km/h
Gust
km/h
Spd
kts
Gust
kts
23/08:00am 18.7 17.3 10.8 60 4.3 N 9 11 5 6 1018.7 1018.7 0.2
23/07:30am 18.5 16.7 9.6 56 4.7 N 9 13 5 7 1018.7 1018.7 0.2
23/07:00am 18.0 16.1 9.1 56 4.7 NNE 9 13 5 7 1018.6 1018.6 0.2
23/06:30am 17.7 15.8 9.1 57 4.5 NE 9 13 5 7 1018.5 1018.5 0.2
23/06:00am 17.9 16.2 8.2 53 5.0 NNE 7 11 4 6 1018.4 1018.4 0.2
23/05:30am 18.1 16.0 8.1 52 5.1 N 9 11 5 6 1018.3 1018.3 0.2
23/05:00am 17.8 16.7 8.6 55 4.8 ENE 4 13 2 7 1018.3 1018.3 0.2
23/04:30am 18.7 14.8 6.9 46 5.9 NE 17 26 9 14 1018.4 1018.4 0.2
23/04:00am 18.6 14.2 6.4 45 6.1 NE 19 30 10 16 1018.5 1018.5 0.2
23/03:30am 18.1 14.7 7.8 51 5.2 NE 15 20 8 11 1018.7 1018.7 0.2
23/03:00am 18.1 14.9 8.4 53 5.0 NE 15 20 8 11 1018.8 1018.8 0.2
23/02:30am 17.5 14.0 8.9 57 4.5 NNE 17 20 9 11 1019.1 1019.1 0.2
23/02:00am 18.0 14.3 8.0 52 5.1 NNE 17 22 9 12 1019.4 1019.4 0.2
23/01:30am 18.0 14.5 8.6 54 4.9 NNE 17 22 9 12 1019.8 1019.8 0.2
23/01:00am 18.3 14.7 8.3 52 5.2 NE 17 22 9 12 1020.3 1020.2 0.2
23/12:30am 17.9 14.8 8.7 55 4.8 NE 15 20 8 11 1020.5 1020.4 0.2
23/12:00am 17.6 14.9 9.0 57 4.5 NE 13 15 7 8 1020.6 1020.5 0.2
 
Date/Time
CDT
Temp
°C
App
Temp
°C
Dew
Point
°C
Rel
Hum
%
Delta-T
°C
Wind Press
QNH
hPa
Press
MSL
hPa
Rain since
9am
mm
Dir  Spd
km/h
Gust
km/h
Spd
kts
Gust
kts
22/11:30pm 17.4 15.6 9.6 60 4.1 NE 9 11 5 6 1020.8 1020.7 0.2
22/11:00pm 18.5 16.4 8.2 51 5.3 NE 9 13 5 7 1021.2 1021.1 0.2
22/10:30pm 18.5 16.4 8.2 51 5.3 NE 9 11 5 6 1021.4 1021.3 0.2
22/10:00pm 18.9 16.9 8.6 51 5.4 NE 9 13 5 7 1021.4 1021.3 0.2
22/09:30pm 18.7 16.5 9.2 54 5.0 NE 11 15 6 8 1021.3 1021.2 0.2
22/09:00pm 18.8 16.7 9.8 56 4.8 NE 11 13 6 7 1021.4 1021.3 0.2
22/08:30pm 18.4 17.1 11.2 63 3.9 NNE 9 13 5 7 1021.2 1021.1 0.2
22/08:00pm 18.1 17.4 11.9 67 3.4 NNE 7 11 4 6 1021.0 1020.9 0.2
22/07:30pm 18.7 17.4 11.3 62 4.0 NE 9 13 5 7 1020.8 1020.7 0.2
22/07:00pm 18.7 17.6 12.0 65 3.7 NE 9 13 5 7 1020.7 1020.6 0.2
22/06:30pm 18.5 18.0 12.7 69 3.2 NNE 7 11 4 6 1020.7 1020.6 0.2
22/06:00pm 18.9 18.5 13.1 69 3.3 NE 7 9 4 5 1020.7 1020.6 0.2
22/05:30pm 19.0 18.8 13.6 71 3.1 NE 7 9 4 5 1020.7 1020.6 0.2
22/05:00pm 19.3 19.2 13.9 71 3.1 NE 7 9 4 5 1020.7 1020.6 0.2
22/04:30pm 19.2 18.8 14.2 73 2.9 N 9 11 5 6 1020.9 1020.8 0.2
22/04:00pm 19.0 18.5 13.8 72 3.0 NNE 9 13 5 7 1021.0 1020.9 0.2
22/03:30pm 20.4 18.9 11.9 58 4.7 NNE 11 13 6 7 1021.3 1021.2 0.2
22/03:00pm 20.4 19.1 12.6 61 4.4 N 11 11 6 6 1021.6 1021.5 0.2
22/02:30pm 20.4 18.7 11.1 55 5.1 N 11 11 6 6 1022.0 1021.9 0.2
22/02:00pm 19.6 18.5 11.9 61 4.3 N 9 13 5 7 1022.6 1022.5 0.2
22/01:30pm 19.0 18.4 13.4 70 3.2 NNE 9 13 5 7 1022.9 1022.8 0.2
22/01:00pm 18.1 17.4 13.2 73 2.8 NNE 9 11 5 6 1023.2 1023.1 0.2
22/12:30pm 18.3 17.7 13.4 73 2.8 NNE 9 13 5 7 1023.4 1023.3 0.2
22/12:00pm 18.5 17.9 13.4 72 2.9 NE 9 11 5 6 1023.7 1023.6 0.2
22/11:30am 17.7 16.7 12.4 71 2.9 NNE 9 11 5 6 1024.0 1023.9 0.2
22/11:00am 17.4 16.3 12.1 71 2.9 NNE 9 13 5 7 1024.1 1024.0 0.2
22/10:30am 17.5 16.5 12.2 71 2.9 N 9 11 5 6 1024.2 1024.1 0.2
22/10:00am 17.6 16.9 11.9 69 3.1 N 7 11 4 6 1024.3 1024.2 0.2
22/09:30am 17.0 16.2 11.7 71 2.9 NNE 7 9 4 5 1024.4 1024.3 0.0
22/09:00am 16.4 15.8 11.6 73 2.6 N 6 7 3 4 1024.3 1024.2 0.0
22/08:30am 16.0 15.4 12.2 78 2.1 N 7 9 4 5 1024.1 1024.0 0.0
22/08:00am 15.5 15.1 12.3 81 1.8 NE 6 9 3 5 1024.1 1024.0 0.0
22/07:30am 14.6 14.1 11.9 84 1.5 N 6 9 3 5 1024.0 1023.9 0.0
22/07:00am 14.2 13.1 11.9 86 1.2 NNE 9 15 5 8 1023.6 1023.5 0.0
22/06:30am 13.8 11.9 11.7 87 1.1 NE 13 15 7 8 1023.3 1023.2 0.0
22/06:00am 13.7 11.8 11.8 88 1.0 NE 13 15 7 8 1023.1 1023.0 0.0
22/05:30am 13.6 12.1 11.8 89 1.0 NE 11 13 6 7 1023.0 1022.9 0.0
22/05:00am 13.4 12.3 11.8 90 0.9 NE 9 13 5 7 1023.0 1022.9 0.0
22/04:30am 13.6 12.1 12.0 90 0.9 NE 11 13 6 7 1023.1 1023.0 0.0
22/04:00am 13.9 12.6 12.5 91 0.8 ENE 11 13 6 7 1023.3 1023.2 0.0
22/03:30am 13.8 12.8 12.2 90 0.9 ENE 9 11 5 6 1023.6 1023.5 0.0
22/03:00am 13.8 12.4 12.2 90 0.9 E 11 13 6 7 1023.7 1023.6 0.0
22/02:30am 13.8 12.8 12.2 90 0.9 E 9 11 5 6 1024.0 1023.9 0.0
22/02:00am 13.9 12.9 12.3 90 0.9 E 9 11 5 6 1024.3 1024.2 0.0
22/01:30am 13.9 13.3 12.3 90 0.9 E 7 9 4 5 1024.6 1024.6 0.0
22/01:00am 13.9 12.8 12.1 89 1.0 E 9 11 5 6 1024.9 1024.9 0.0
22/12:30am 13.8 12.3 12.0 89 1.0 E 11 13 6 7 1025.0 1025.0 0.0
22/12:00am 14.0 12.6 12.2 89 1.0 E 11 13 6 7 1025.3 1025.3 0.0
 
Date/Time
CDT
Temp
°C
App
Temp
°C
Dew
Point
°C
Rel
Hum
%
Delta-T
°C
Wind Press
QNH
hPa
Press
MSL
hPa
Rain since
9am
mm
Dir  Spd
km/h
Gust
km/h
Spd
kts
Gust
kts
21/11:30pm 14.0 12.6 12.2 89 1.0 ENE 11 13 6 7 1025.4 1025.4 0.0
21/11:00pm 13.9 12.4 11.9 88 1.1 ENE 11 13 6 7 1025.5 1025.5 0.0
21/10:30pm 13.9 12.4 11.9 88 1.1 ENE 11 13 6 7 1025.6 1025.6 0.0
21/10:00pm 13.9 12.0 11.8 87 1.1 ENE 13 15 7 8 1025.7 1025.7 0.0
21/09:30pm 14.0 12.1 11.7 86 1.2 ENE 13 17 7 9 1025.7 1025.7 0.0
21/09:00pm 14.0 12.8 11.5 85 1.3 E 9 13 5 7 1025.9 1025.9 0.0
21/08:30pm 13.9 12.2 11.2 84 1.4 E 11 13 6 7 1025.7 1025.7 0.0
21/08:00pm 13.9 12.6 11.1 83 1.5 E 9 13 5 7 1025.6 1025.6 0.0
21/07:30pm 14.0 12.2 10.8 81 1.7 E 11 13 6 7 1025.5 1025.5 0.0
21/07:00pm 14.4 13.0 11.0 80 1.8 E 9 13 5 7 1025.8 1025.8 0.0
21/06:30pm 14.6 12.8 10.8 78 2.0 ESE 11 13 6 7 1025.7 1025.7 0.0
21/06:00pm 15.1 13.3 10.9 76 2.2 ESE 11 13 6 7 1025.7 1025.7 0.0
21/05:30pm 15.7 14.4 11.3 75 2.4 ESE 9 13 5 7 1025.7 1025.7 0.0
21/05:00pm 15.6 13.8 11.0 74 2.5 E 11 13 6 7 1025.7 1025.7 0.0
21/04:30pm 15.6 14.2 10.8 73 2.5 E 9 13 5 7 1025.8 1025.8 0.0
21/04:00pm 16.3 14.3 11.5 73 2.6 ENE 13 15 7 8 1025.9 1025.9 0.0
21/03:30pm 15.9 13.4 10.9 72 2.7 E 15 17 8 9 1026.2 1026.2 0.0
21/03:00pm 16.2 13.6 10.7 70 2.9 ENE 15 17 8 9 1026.6 1026.6 0.0
21/02:30pm 16.1 13.5 10.8 71 2.8 ENE 15 19 8 10 1026.8 1026.8 0.0
21/02:00pm 15.9 13.2 10.4 70 2.9 ENE 15 19 8 10 1027.0 1027.0 0.0
21/01:30pm 16.2 13.2 10.7 70 2.9 ENE 17 20 9 11 1027.2 1027.2 0.0
21/01:00pm 16.0 12.9 10.3 69 3.0 ENE 17 19 9 10 1027.4 1027.4 0.0
21/12:30pm 16.1 13.4 10.2 68 3.1 ENE 15 17 8 9 1027.7 1027.7 0.0
21/12:00pm 16.0 13.3 10.5 70 2.9 ENE 15 19 8 10 1028.2 1028.2 0.0
21/11:30am 15.7 12.6 10.2 70 2.9 ENE 17 20 9 11 1028.4 1028.4 0.0
21/11:00am 15.3 12.2 10.3 72 2.6 ENE 17 20 9 11 1028.5 1028.5 0.0
21/10:30am 14.8 11.2 9.8 72 2.6 ENE 19 24 10 13 1028.6 1028.6 0.0
21/10:00am 14.7 10.6 10.1 74 2.4 ENE 22 26 12 14 1028.9 1028.9 0.0
21/09:30am 14.1 9.1 9.5 74 2.3 ENE 26 30 14 16 1028.9 1028.9 0.0
21/09:00am 13.5 8.8 9.2 75 2.2 ENE 24 30 13 16 1028.8 1028.8 0.0
21/08:30am 13.4 8.4 9.5 77 2.0 ENE 26 32 14 17 1028.7 1028.7 0.0
21/08:00am 12.8 8.0 8.7 76 2.1 ENE 24 30 13 16 1028.5 1028.5 0.0
21/07:30am 12.4 7.9 8.5 77 1.9 ENE 22 28 12 15 1028.3 1028.3 0.0
21/07:00am 11.8 6.9 8.5 80 1.6 ENE 24 30 13 16 1028.0 1028.0 0.0
21/06:30am 11.4 6.8 8.3 81 1.5 ENE 22 30 12 16 1027.9 1027.9 0.0
21/06:00am 11.5 7.0 8.4 81 1.5 NE 22 24 12 13 1027.8 1027.8 0.0
21/05:30am 11.4 6.8 8.1 80 1.6 NE 22 26 12 14 1027.8 1027.8 0.0
21/05:00am 11.7 7.2 8.7 82 1.5 NE 22 26 12 14 1027.7 1027.7 0.0
21/04:30am 11.8 7.7 8.8 82 1.5 NNE 20 24 11 13 1027.9 1027.9 0.0
21/04:00am 12.0 7.5 8.5 79 1.7 NE 22 28 12 15 1028.0 1028.0 0.0
21/03:30am 11.9 7.9 8.2 78 1.8 ENE 19 24 10 13 1028.0 1028.0 0.0
21/03:00am 12.0 7.4 8.3 78 1.8 ENE 22 28 12 15 1027.6 1027.6 0.0
21/02:30am 11.9 6.9 8.0 77 1.9 E 24 30 13 16 1027.5 1027.5 0.0
21/02:00am 12.1 7.1 8.2 77 1.9 E 24 33 13 18 1027.8 1027.8 0.0
21/01:30am 12.0 7.7 7.7 75 2.1 E 20 26 11 14 1028.4 1028.4 0.0
21/01:00am 12.0 8.2 7.5 74 2.2 E 17 22 9 12 1029.1 1029.1 0.0
21/12:30am 12.1 9.8 7.4 73 2.3 E 9 15 5 8 1029.9 1029.9 0.0
21/12:00am 12.2 9.9 7.5 73 2.3 ESE 9 13 5 7 1030.6 1030.6 0.0
 
Date/Time
CDT
Temp
°C
App
Temp
°C
Dew
Point
°C
Rel
Hum
%
Delta-T
°C
Wind Press
QNH
hPa
Press
MSL
hPa
Rain since
9am
mm
Dir  Spd
km/h
Gust
km/h
Spd
kts
Gust
kts
20/11:30pm 12.2 9.2 7.5 73 2.3 ESE 13 19 7 10 1030.5 1030.5 0.0
20/11:00pm 12.3 8.9 7.6 73 2.3 ESE 15 19 8 10 1030.3 1030.3 0.0
20/10:30pm 12.5 9.1 7.8 73 2.3 SE 15 19 8 10 1030.4 1030.4 0.0
20/10:00pm 12.4 8.6 7.7 73 2.3 SE 17 22 9 12 1030.5 1030.5 0.0
20/09:30pm 12.6 8.9 7.9 73 2.3 SE 17 20 9 11 1030.3 1030.3 0.0
20/09:00pm 12.6 8.8 7.7 72 2.4 SE 17 20 9 11 1030.0 1030.0 0.0
20/08:30pm 12.5 8.3 7.4 71 2.5 SE 19 22 10 12 1029.6 1029.6 0.0
20/08:00pm 12.8 9.1 7.9 72 2.4 SSE 17 22 9 12 1029.5 1029.5 0.0
20/07:30pm 12.9 9.5 7.6 70 2.6 SSE 15 19 8 10 1029.4 1029.4 0.0
20/07:00pm 13.2 9.5 7.9 70 2.6 SSE 17 20 9 11 1029.3 1029.3 0.0
20/06:30pm 13.3 10.4 8.0 70 2.6 SSE 13 20 7 11 1029.1 1029.1 0.0
20/06:00pm 13.6 10.6 7.8 68 2.8 SSE 13 19 7 10 1028.8 1028.8 0.0
20/05:30pm 13.9 10.9 7.7 66 3.0 SSE 13 17 7 9 1028.7 1028.7 0.0
20/05:00pm 13.9 10.8 7.4 65 3.2 SSE 13 19 7 10 1028.6 1028.6 0.0
20/04:30pm 13.8 10.2 6.9 63 3.3 SSE 15 20 8 11 1028.7 1028.7 0.0
20/04:00pm 14.4 10.9 7.2 62 3.5 S 15 19 8 10 1028.8 1028.8 0.0
20/03:30pm 14.6 10.8 7.4 62 3.5 S 17 22 9 12 1028.8 1028.8 0.0
20/03:00pm 14.6 11.2 7.6 63 3.4 S 15 20 8 11 1029.1 1029.1 0.0
20/02:30pm 14.5 11.3 6.8 60 3.7 SSE 13 17 7 9 1029.1 1029.1 0.0
20/02:00pm 14.9 11.7 7.0 59 3.9 S 13 17 7 9 1029.2 1029.2 0.0
20/01:30pm 14.8 11.8 7.8 63 3.5 SSE 13 15 7 8 1029.0 1029.0 0.0
20/01:00pm 14.3 10.6 7.8 65 3.2 S 17 24 9 13 1029.1 1029.1 0.0
20/12:30pm 14.2 10.3 7.0 62 3.5 S 17 20 9 11 1029.3 1029.3 0.0
20/12:00pm 13.8 10.2 6.7 62 3.4 S 15 20 8 11 1029.3 1029.3 0.0
20/11:30am 13.9 10.1 6.0 59 3.7 S 15 19 8 10 1029.4 1029.4 0.0
20/11:00am 14.7 11.5 7.0 60 3.8 S 13 17 7 9 1029.6 1029.6 0.0
20/10:30am 13.4 10.8 6.3 62 3.4 S 9 17 5 9 1029.6 1029.6 0.0
20/10:00am 13.3 11.2 6.6 64 3.2 SSW 7 13 4 7 1029.6 1029.6 0.0
20/09:30am 13.1 10.5 6.2 63 3.3 SSW 9 15 5 8 1029.7 1029.7 0.0
20/09:00am 13.1 9.3 5.8 61 3.4 SW 15 20 8 11 1029.6 1029.6 0.0
20/08:30am 12.7 9.5 6.7 67 2.9 SSW 13 20 7 11 1029.4 1029.4 0.0

Other formats

Comma delimited format used in spreadsheet applications
http://www.bom.gov.au/fwo/IDS60801/IDS60801.94822.axf

JavaScript Object Notation format (JSON) in row-major order
http://www.bom.gov.au/fwo/IDS60801/IDS60801.94822.json

Data quality

Most of these data are generated automatically and are frequently updated. Quality checks on data are not normally performed. It is possible for incorrect values to appear. Refer to information at About Latest Weather Observations and please check the disclaimer before using these data.